Terminal Aerodrome Forecast
Issued by NWS Missoula, MT

Home | Current Version | Previous Version | Text Only | Print | Product List | Glossary On
Versions: 1 2 3 4 5 6 7 8 9 10 11 12 13 14 15 16 17 18 19 20 21 22 23 24 25
000
FTUS45 KMSO 011720
TAFGPI
TAF
KGPI 011720Z 0118/0218 17012KT P6SM VCSH SCT035 OVC040
     FM012000 20015G25KT P6SM VCSH BKN050
     FM020200 22007KT P6SM BKN050
     FM020600 VRB05KT 5SM -SHSN BKN025 OVC040=

USA.gov is the U.S. government's official web portal to all federal, state and local government web resources and services.